sensor_id;sensor_type;location;lat;lon;timestamp;P1;durP1;ratioP1;P2;durP2;ratioP2
43803;SDS011;29430;52.924;-2.388;2022-12-07T00:01:08;10.55;;;2.80;;
43803;SDS011;29430;52.924;-2.388;2022-12-07T00:06:12;9.65;;;2.28;;
43803;SDS011;29430;52.924;-2.388;2022-12-07T00:11:10;6.20;;;1.20;;
43803;SDS011;29430;52.924;-2.388;2022-12-07T00:16:08;4.28;;;1.05;;
43803;SDS011;29430;52.924;-2.388;2022-12-07T00:21:06;3.35;;;1.00;;
43803;SDS011;29430;52.924;-2.388;2022-12-07T00:26:06;5.72;;;1.00;;
43803;SDS011;29430;52.924;-2.388;2022-12-07T00:31:07;7.60;;;1.25;;
43803;SDS011;29430;52.924;-2.388;2022-12-07T00:36:03;6.38;;;0.80;;
43803;SDS011;29430;52.924;-2.388;2022-12-07T00:41:33;6.05;;;0.95;;
43803;SDS011;29430;52.924;-2.388;2022-12-07T00:46:18;3.65;;;0.75;;
43803;SDS011;29430;52.924;-2.388;2022-12-07T00:51:12;4.68;;;0.98;;
43803;SDS011;29430;52.924;-2.388;2022-12-07T00:56:09;2.80;;;0.60;;
43803;SDS011;29430;52.924;-2.388;2022-12-07T01:01:06;3.63;;;0.80;;
43803;SDS011;29430;52.924;-2.388;2022-12-07T01:05:59;7.53;;;0.73;;
43803;SDS011;29430;52.924;-2.388;2022-12-07T01:10:58;4.30;;;0.70;;
43803;SDS011;29430;52.924;-2.388;2022-12-07T01:15:55;3.88;;;1.67;;
43803;SDS011;29430;52.924;-2.388;2022-12-07T01:21:02;5.00;;;0.80;;
43803;SDS011;29430;52.924;-2.388;2022-12-07T01:25:57;5.22;;;0.68;;
43803;SDS011;29430;52.924;-2.388;2022-12-07T01:30:56;3.42;;;0.70;;
43803;SDS011;29430;52.924;-2.388;2022-12-07T01:35:50;4.30;;;0.90;;
43803;SDS011;29430;52.924;-2.388;2022-12-07T01:40:41;6.07;;;1.08;;
43803;SDS011;29430;52.924;-2.388;2022-12-07T01:45:38;3.80;;;0.77;;
43803;SDS011;29430;52.924;-2.388;2022-12-07T01:50:31;5.43;;;0.80;;
43803;SDS011;29430;52.924;-2.388;2022-12-07T01:55:23;5.07;;;0.80;;
43803;SDS011;29430;52.924;-2.388;2022-12-07T02:00:17;3.83;;;1.10;;
43803;SDS011;29430;52.924;-2.388;2022-12-07T02:05:10;3.35;;;0.60;;
43803;SDS011;29430;52.924;-2.388;2022-12-07T02:10:13;3.75;;;0.88;;
43803;SDS011;29430;52.924;-2.388;2022-12-07T02:15:06;6.30;;;0.80;;
43803;SDS011;29430;52.924;-2.388;2022-12-07T02:30:31;4.55;;;0.63;;
43803;SDS011;29430;52.924;-2.388;2022-12-07T02:45:31;6.68;;;1.17;;
43803;SDS011;29430;52.924;-2.388;2022-12-07T02:50:27;3.63;;;0.80;;
43803;SDS011;29430;52.924;-2.388;2022-12-07T02:55:21;4.00;;;0.60;;
43803;SDS011;29430;52.924;-2.388;2022-12-07T03:00:19;7.38;;;0.85;;
43803;SDS011;29430;52.924;-2.388;2022-12-07T03:05:20;9.35;;;0.90;;
43803;SDS011;29430;52.924;-2.388;2022-12-07T03:10:24;5.13;;;0.70;;
43803;SDS011;29430;52.924;-2.388;2022-12-07T03:15:22;6.38;;;0.75;;
43803;SDS011;29430;52.924;-2.388;2022-12-07T03:20:20;3.03;;;0.88;;
43803;SDS011;29430;52.924;-2.388;2022-12-07T03:25:15;10.32;;;1.13;;
43803;SDS011;29430;52.924;-2.388;2022-12-07T03:30:09;7.65;;;1.50;;
43803;SDS011;29430;52.924;-2.388;2022-12-07T03:35:16;4.70;;;0.80;;
43803;SDS011;29430;52.924;-2.388;2022-12-07T03:45:16;7.93;;;1.27;;
43803;SDS011;29430;52.924;-2.388;2022-12-07T04:00:06;5.80;;;1.33;;
43803;SDS011;29430;52.924;-2.388;2022-12-07T04:04:59;8.43;;;1.95;;
43803;SDS011;29430;52.924;-2.388;2022-12-07T04:09:51;4.45;;;1.13;;
43803;SDS011;29430;52.924;-2.388;2022-12-07T04:14:42;3.80;;;0.90;;
43803;SDS011;29430;52.924;-2.388;2022-12-07T04:19:34;4.05;;;1.00;;
43803;SDS011;29430;52.924;-2.388;2022-12-07T04:24:26;7.97;;;1.08;;
43803;SDS011;29430;52.924;-2.388;2022-12-07T04:29:18;6.32;;;1.90;;
43803;SDS011;29430;52.924;-2.388;2022-12-07T04:34:11;5.00;;;0.95;;
43803;SDS011;29430;52.924;-2.388;2022-12-07T04:39:04;3.03;;;1.17;;
43803;SDS011;29430;52.924;-2.388;2022-12-07T04:44:00;5.63;;;0.98;;
43803;SDS011;29430;52.924;-2.388;2022-12-07T04:48:53;6.30;;;1.70;;
43803;SDS011;29430;52.924;-2.388;2022-12-07T04:53:46;6.13;;;0.90;;
43803;SDS011;29430;52.924;-2.388;2022-12-07T04:58:38;7.93;;;1.30;;
43803;SDS011;29430;52.924;-2.388;2022-12-07T05:03:30;5.30;;;1.23;;
43803;SDS011;29430;52.924;-2.388;2022-12-07T05:08:21;5.10;;;1.02;;
43803;SDS011;29430;52.924;-2.388;2022-12-07T05:13:13;5.55;;;1.17;;
43803;SDS011;29430;52.924;-2.388;2022-12-07T05:18:05;4.88;;;0.95;;
43803;SDS011;29430;52.924;-2.388;2022-12-07T05:22:57;5.28;;;1.90;;
43803;SDS011;29430;52.924;-2.388;2022-12-07T05:27:49;6.38;;;2.00;;
43803;SDS011;29430;52.924;-2.388;2022-12-07T05:32:41;8.73;;;1.65;;
43803;SDS011;29430;52.924;-2.388;2022-12-07T05:37:33;9.20;;;1.65;;
43803;SDS011;29430;52.924;-2.388;2022-12-07T05:42:24;3.78;;;1.00;;
43803;SDS011;29430;52.924;-2.388;2022-12-07T05:47:16;5.93;;;1.30;;
43803;SDS011;29430;52.924;-2.388;2022-12-07T05:52:08;7.10;;;1.60;;
43803;SDS011;29430;52.924;-2.388;2022-12-07T05:57:00;7.38;;;1.75;;
43803;SDS011;29430;52.924;-2.388;2022-12-07T06:02:02;2.83;;;0.82;;
43803;SDS011;29430;52.924;-2.388;2022-12-07T06:07:02;6.65;;;1.45;;
43803;SDS011;29430;52.924;-2.388;2022-12-07T06:11:55;5.35;;;0.85;;
43803;SDS011;29430;52.924;-2.388;2022-12-07T06:17:05;3.88;;;1.35;;
43803;SDS011;29430;52.924;-2.388;2022-12-07T06:21:58;6.03;;;1.30;;
43803;SDS011;29430;52.924;-2.388;2022-12-07T06:26:50;7.18;;;2.08;;
43803;SDS011;29430;52.924;-2.388;2022-12-07T06:31:42;10.07;;;2.20;;
43803;SDS011;29430;52.924;-2.388;2022-12-07T06:36:34;4.82;;;1.58;;
43803;SDS011;29430;52.924;-2.388;2022-12-07T06:41:26;7.43;;;1.00;;
43803;SDS011;29430;52.924;-2.388;2022-12-07T06:46:18;8.45;;;1.83;;
43803;SDS011;29430;52.924;-2.388;2022-12-07T06:51:10;6.15;;;1.85;;
43803;SDS011;29430;52.924;-2.388;2022-12-07T06:56:02;4.55;;;1.40;;
43803;SDS011;29430;52.924;-2.388;2022-12-07T07:00:55;7.40;;;1.50;;
43803;SDS011;29430;52.924;-2.388;2022-12-07T07:05:47;7.40;;;2.00;;
43803;SDS011;29430;52.924;-2.388;2022-12-07T07:10:39;5.53;;;1.65;;
43803;SDS011;29430;52.924;-2.388;2022-12-07T07:15:31;5.85;;;1.88;;
43803;SDS011;29430;52.924;-2.388;2022-12-07T07:20:24;8.30;;;2.10;;
43803;SDS011;29430;52.924;-2.388;2022-12-07T07:25:15;7.25;;;1.75;;
43803;SDS011;29430;52.924;-2.388;2022-12-07T07:30:08;3.47;;;0.95;;
43803;SDS011;29430;52.924;-2.388;2022-12-07T07:35:00;5.28;;;1.42;;
43803;SDS011;29430;52.924;-2.388;2022-12-07T07:39:52;5.95;;;1.30;;
43803;SDS011;29430;52.924;-2.388;2022-12-07T07:44:43;4.43;;;1.30;;
43803;SDS011;29430;52.924;-2.388;2022-12-07T07:49:35;4.72;;;1.15;;
43803;SDS011;29430;52.924;-2.388;2022-12-07T07:54:27;6.68;;;1.30;;
43803;SDS011;29430;52.924;-2.388;2022-12-07T07:59:20;9.63;;;1.30;;
43803;SDS011;29430;52.924;-2.388;2022-12-07T08:04:11;4.72;;;1.10;;
43803;SDS011;29430;52.924;-2.388;2022-12-07T08:09:03;6.15;;;1.35;;
43803;SDS011;29430;52.924;-2.388;2022-12-07T08:13:56;6.13;;;1.42;;
43803;SDS011;29430;52.924;-2.388;2022-12-07T08:18:48;4.45;;;1.00;;
43803;SDS011;29430;52.924;-2.388;2022-12-07T08:23:41;7.28;;;0.88;;
43803;SDS011;29430;52.924;-2.388;2022-12-07T08:28:33;9.73;;;1.80;;
43803;SDS011;29430;52.924;-2.388;2022-12-07T08:33:25;5.82;;;1.00;;
43803;SDS011;29430;52.924;-2.388;2022-12-07T08:38:17;5.53;;;1.02;;
43803;SDS011;29430;52.924;-2.388;2022-12-07T08:43:08;4.22;;;0.90;;
43803;SDS011;29430;52.924;-2.388;2022-12-07T08:48:04;8.15;;;0.77;;
43803;SDS011;29430;52.924;-2.388;2022-12-07T08:53:00;3.67;;;0.95;;
43803;SDS011;29430;52.924;-2.388;2022-12-07T08:57:52;4.43;;;0.60;;
43803;SDS011;29430;52.924;-2.388;2022-12-07T09:02:44;4.70;;;0.68;;
43803;SDS011;29430;52.924;-2.388;2022-12-07T09:07:37;2.40;;;0.80;;
43803;SDS011;29430;52.924;-2.388;2022-12-07T09:12:30;6.05;;;0.93;;
43803;SDS011;29430;52.924;-2.388;2022-12-07T09:17:22;4.97;;;0.60;;
43803;SDS011;29430;52.924;-2.388;2022-12-07T09:22:13;3.85;;;0.75;;
43803;SDS011;29430;52.924;-2.388;2022-12-07T09:27:05;5.55;;;0.70;;
43803;SDS011;29430;52.924;-2.388;2022-12-07T09:31:57;10.98;;;4.25;;
43803;SDS011;29430;52.924;-2.388;2022-12-07T09:36:49;10.20;;;4.80;;
43803;SDS011;29430;52.924;-2.388;2022-12-07T09:41:41;4.30;;;1.20;;
43803;SDS011;29430;52.924;-2.388;2022-12-07T09:46:36;4.25;;;0.73;;
43803;SDS011;29430;52.924;-2.388;2022-12-07T09:51:29;2.33;;;0.60;;
43803;SDS011;29430;52.924;-2.388;2022-12-07T09:56:22;2.17;;;0.85;;
43803;SDS011;29430;52.924;-2.388;2022-12-07T10:01:17;2.30;;;0.43;;
43803;SDS011;29430;52.924;-2.388;2022-12-07T10:06:10;3.08;;;0.50;;
43803;SDS011;29430;52.924;-2.388;2022-12-07T10:11:04;2.80;;;0.52;;
43803;SDS011;29430;52.924;-2.388;2022-12-07T10:16:02;3.33;;;0.50;;
43803;SDS011;29430;52.924;-2.388;2022-12-07T10:21:02;3.53;;;0.50;;
43803;SDS011;29430;52.924;-2.388;2022-12-07T10:25:54;2.75;;;0.50;;
43803;SDS011;29430;52.924;-2.388;2022-12-07T10:35:44;3.63;;;0.40;;
43803;SDS011;29430;52.924;-2.388;2022-12-07T10:40:36;2.55;;;0.40;;
43803;SDS011;29430;52.924;-2.388;2022-12-07T10:45:32;2.70;;;0.38;;
43803;SDS011;29430;52.924;-2.388;2022-12-07T10:50:38;2.67;;;0.60;;
43803;SDS011;29430;52.924;-2.388;2022-12-07T11:06:20;3.25;;;0.40;;
43803;SDS011;29430;52.924;-2.388;2022-12-07T11:11:36;2.13;;;0.50;;
43803;SDS011;29430;52.924;-2.388;2022-12-07T11:36:58;4.10;;;0.25;;
43803;SDS011;29430;52.924;-2.388;2022-12-07T11:47:16;4.93;;;0.30;;
43803;SDS011;29430;52.924;-2.388;2022-12-07T11:58:01;0.88;;;0.20;;
43803;SDS011;29430;52.924;-2.388;2022-12-07T12:03:04;2.30;;;0.20;;
43803;SDS011;29430;52.924;-2.388;2022-12-07T12:08:06;3.38;;;0.25;;
43803;SDS011;29430;52.924;-2.388;2022-12-07T12:18:53;2.67;;;0.30;;
43803;SDS011;29430;52.924;-2.388;2022-12-07T12:23:59;1.25;;;0.20;;
43803;SDS011;29430;52.924;-2.388;2022-12-07T12:28:56;2.60;;;0.40;;
43803;SDS011;29430;52.924;-2.388;2022-12-07T12:34:00;3.20;;;0.30;;
43803;SDS011;29430;52.924;-2.388;2022-12-07T12:43:58;2.88;;;0.20;;
43803;SDS011;29430;52.924;-2.388;2022-12-07T12:48:49;2.13;;;0.20;;
43803;SDS011;29430;52.924;-2.388;2022-12-07T12:53:41;1.67;;;0.30;;
43803;SDS011;29430;52.924;-2.388;2022-12-07T12:58:35;2.72;;;0.50;;
43803;SDS011;29430;52.924;-2.388;2022-12-07T13:03:29;1.90;;;0.35;;
43803;SDS011;29430;52.924;-2.388;2022-12-07T13:08:24;3.67;;;0.30;;
43803;SDS011;29430;52.924;-2.388;2022-12-07T13:13:28;4.40;;;0.30;;
43803;SDS011;29430;52.924;-2.388;2022-12-07T13:23:21;3.28;;;0.65;;
43803;SDS011;29430;52.924;-2.388;2022-12-07T13:28:16;1.45;;;0.28;;
43803;SDS011;29430;52.924;-2.388;2022-12-07T13:33:09;1.50;;;0.17;;
43803;SDS011;29430;52.924;-2.388;2022-12-07T13:38:29;4.32;;;0.45;;
43803;SDS011;29430;52.924;-2.388;2022-12-07T13:43:23;1.65;;;0.38;;
43803;SDS011;29430;52.924;-2.388;2022-12-07T13:48:29;2.88;;;0.35;;
43803;SDS011;29430;52.924;-2.388;2022-12-07T13:53:24;3.10;;;0.30;;
43803;SDS011;29430;52.924;-2.388;2022-12-07T13:58:21;1.70;;;0.50;;
43803;SDS011;29430;52.924;-2.388;2022-12-07T14:08:20;2.47;;;0.40;;
43803;SDS011;29430;52.924;-2.388;2022-12-07T14:18:28;3.30;;;0.30;;
43803;SDS011;29430;52.924;-2.388;2022-12-07T14:23:31;3.20;;;0.32;;
43803;SDS011;29430;52.924;-2.388;2022-12-07T14:28:26;2.50;;;0.32;;
43803;SDS011;29430;52.924;-2.388;2022-12-07T14:33:20;1.45;;;0.20;;
43803;SDS011;29430;52.924;-2.388;2022-12-07T14:38:13;3.92;;;0.65;;
43803;SDS011;29430;52.924;-2.388;2022-12-07T14:43:08;2.90;;;0.30;;
43803;SDS011;29430;52.924;-2.388;2022-12-07T14:48:03;2.28;;;0.30;;
43803;SDS011;29430;52.924;-2.388;2022-12-07T14:53:16;1.55;;;0.30;;
43803;SDS011;29430;52.924;-2.388;2022-12-07T14:58:17;2.55;;;0.40;;
43803;SDS011;29430;52.924;-2.388;2022-12-07T15:03:09;1.13;;;0.30;;
43803;SDS011;29430;52.924;-2.388;2022-12-07T15:08:02;3.85;;;0.40;;
43803;SDS011;29430;52.924;-2.388;2022-12-07T15:12:54;3.42;;;0.32;;
43803;SDS011;29430;52.924;-2.388;2022-12-07T15:17:46;2.88;;;0.30;;
43803;SDS011;29430;52.924;-2.388;2022-12-07T15:22:37;3.00;;;0.40;;
43803;SDS011;29430;52.924;-2.388;2022-12-07T15:27:30;4.47;;;0.60;;
43803;SDS011;29430;52.924;-2.388;2022-12-07T15:32:21;2.05;;;0.40;;
43803;SDS011;29430;52.924;-2.388;2022-12-07T15:37:14;3.20;;;0.50;;
43803;SDS011;29430;52.924;-2.388;2022-12-07T15:42:06;3.05;;;0.45;;
43803;SDS011;29430;52.924;-2.388;2022-12-07T15:46:58;1.67;;;0.63;;
43803;SDS011;29430;52.924;-2.388;2022-12-07T15:51:50;1.40;;;0.20;;
43803;SDS011;29430;52.924;-2.388;2022-12-07T15:56:42;1.60;;;0.40;;
43803;SDS011;29430;52.924;-2.388;2022-12-07T16:01:33;1.35;;;0.30;;
43803;SDS011;29430;52.924;-2.388;2022-12-07T16:06:26;2.53;;;0.40;;
43803;SDS011;29430;52.924;-2.388;2022-12-07T16:11:18;3.35;;;0.40;;
43803;SDS011;29430;52.924;-2.388;2022-12-07T16:16:12;1.95;;;0.40;;
43803;SDS011;29430;52.924;-2.388;2022-12-07T16:21:06;2.13;;;0.40;;
43803;SDS011;29430;52.924;-2.388;2022-12-07T16:26:09;3.53;;;0.50;;
43803;SDS011;29430;52.924;-2.388;2022-12-07T16:31:06;2.72;;;0.40;;
43803;SDS011;29430;52.924;-2.388;2022-12-07T16:36:02;5.10;;;0.70;;
43803;SDS011;29430;52.924;-2.388;2022-12-07T16:40:55;3.30;;;0.60;;
43803;SDS011;29430;52.924;-2.388;2022-12-07T16:45:47;1.77;;;0.50;;
43803;SDS011;29430;52.924;-2.388;2022-12-07T16:50:40;4.68;;;0.60;;
43803;SDS011;29430;52.924;-2.388;2022-12-07T16:55:43;4.40;;;1.10;;
43803;SDS011;29430;52.924;-2.388;2022-12-07T17:00:36;5.05;;;1.20;;
43803;SDS011;29430;52.924;-2.388;2022-12-07T17:05:28;6.20;;;0.93;;
43803;SDS011;29430;52.924;-2.388;2022-12-07T17:10:20;4.35;;;1.10;;
43803;SDS011;29430;52.924;-2.388;2022-12-07T17:15:13;4.85;;;1.40;;
43803;SDS011;29430;52.924;-2.388;2022-12-07T17:20:08;6.82;;;1.75;;
43803;SDS011;29430;52.924;-2.388;2022-12-07T17:25:01;10.80;;;3.17;;
43803;SDS011;29430;52.924;-2.388;2022-12-07T17:29:53;4.75;;;2.03;;
43803;SDS011;29430;52.924;-2.388;2022-12-07T17:34:45;10.93;;;4.30;;
43803;SDS011;29430;52.924;-2.388;2022-12-07T17:39:37;7.38;;;2.53;;
43803;SDS011;29430;52.924;-2.388;2022-12-07T17:44:29;9.15;;;3.55;;
43803;SDS011;29430;52.924;-2.388;2022-12-07T17:49:22;8.95;;;3.70;;
43803;SDS011;29430;52.924;-2.388;2022-12-07T17:54:14;11.48;;;3.90;;
43803;SDS011;29430;52.924;-2.388;2022-12-07T17:59:06;13.10;;;3.05;;
43803;SDS011;29430;52.924;-2.388;2022-12-07T18:03:58;7.35;;;3.03;;
43803;SDS011;29430;52.924;-2.388;2022-12-07T18:08:50;6.15;;;2.20;;
43803;SDS011;29430;52.924;-2.388;2022-12-07T18:13:42;6.30;;;2.40;;
43803;SDS011;29430;52.924;-2.388;2022-12-07T18:18:35;5.60;;;1.85;;
43803;SDS011;29430;52.924;-2.388;2022-12-07T18:23:27;6.05;;;2.10;;
43803;SDS011;29430;52.924;-2.388;2022-12-07T18:28:19;5.75;;;1.73;;
43803;SDS011;29430;52.924;-2.388;2022-12-07T18:33:11;7.30;;;2.17;;
43803;SDS011;29430;52.924;-2.388;2022-12-07T18:38:03;13.02;;;4.38;;
43803;SDS011;29430;52.924;-2.388;2022-12-07T18:42:54;7.90;;;2.80;;
43803;SDS011;29430;52.924;-2.388;2022-12-07T18:47:46;14.25;;;4.95;;
43803;SDS011;29430;52.924;-2.388;2022-12-07T18:52:38;18.30;;;6.28;;
43803;SDS011;29430;52.924;-2.388;2022-12-07T18:57:33;51.55;;;17.73;;
43803;SDS011;29430;52.924;-2.388;2022-12-07T19:02:25;43.38;;;15.07;;
43803;SDS011;29430;52.924;-2.388;2022-12-07T19:07:16;36.67;;;15.38;;
43803;SDS011;29430;52.924;-2.388;2022-12-07T19:12:12;26.88;;;10.48;;
43803;SDS011;29430;52.924;-2.388;2022-12-07T19:17:05;41.30;;;16.27;;
43803;SDS011;29430;52.924;-2.388;2022-12-07T19:21:59;32.65;;;13.57;;
43803;SDS011;29430;52.924;-2.388;2022-12-07T19:26:52;40.75;;;15.02;;
43803;SDS011;29430;52.924;-2.388;2022-12-07T19:31:46;29.23;;;12.70;;
43803;SDS011;29430;52.924;-2.388;2022-12-07T19:36:38;26.15;;;10.80;;
43803;SDS011;29430;52.924;-2.388;2022-12-07T19:41:30;28.60;;;10.55;;
43803;SDS011;29430;52.924;-2.388;2022-12-07T19:46:25;43.00;;;17.65;;
43803;SDS011;29430;52.924;-2.388;2022-12-07T19:51:20;44.83;;;16.83;;
43803;SDS011;29430;52.924;-2.388;2022-12-07T19:56:13;37.03;;;13.38;;
43803;SDS011;29430;52.924;-2.388;2022-12-07T20:01:06;34.80;;;14.93;;
43803;SDS011;29430;52.924;-2.388;2022-12-07T20:05:58;28.60;;;13.07;;
43803;SDS011;29430;52.924;-2.388;2022-12-07T20:10:50;23.10;;;10.35;;
43803;SDS011;29430;52.924;-2.388;2022-12-07T20:15:42;21.00;;;10.85;;
43803;SDS011;29430;52.924;-2.388;2022-12-07T20:20:34;17.85;;;8.80;;
43803;SDS011;29430;52.924;-2.388;2022-12-07T20:25:26;20.02;;;8.13;;
43803;SDS011;29430;52.924;-2.388;2022-12-07T20:30:18;16.25;;;7.38;;
43803;SDS011;29430;52.924;-2.388;2022-12-07T20:35:10;16.83;;;8.63;;
43803;SDS011;29430;52.924;-2.388;2022-12-07T20:40:01;18.42;;;8.85;;
43803;SDS011;29430;52.924;-2.388;2022-12-07T20:44:53;20.65;;;8.70;;
43803;SDS011;29430;52.924;-2.388;2022-12-07T20:49:53;24.33;;;10.25;;
43803;SDS011;29430;52.924;-2.388;2022-12-07T20:54:44;13.00;;;6.70;;
43803;SDS011;29430;52.924;-2.388;2022-12-07T20:59:36;15.00;;;6.40;;
43803;SDS011;29430;52.924;-2.388;2022-12-07T21:04:31;19.05;;;6.68;;
43803;SDS011;29430;52.924;-2.388;2022-12-07T21:09:23;15.70;;;5.82;;
43803;SDS011;29430;52.924;-2.388;2022-12-07T21:14:17;12.18;;;4.10;;
43803;SDS011;29430;52.924;-2.388;2022-12-07T21:19:09;12.50;;;3.92;;
43803;SDS011;29430;52.924;-2.388;2022-12-07T21:24:01;6.88;;;3.03;;
43803;SDS011;29430;52.924;-2.388;2022-12-07T21:28:55;8.77;;;2.90;;
43803;SDS011;29430;52.924;-2.388;2022-12-07T21:33:47;6.05;;;2.10;;
43803;SDS011;29430;52.924;-2.388;2022-12-07T21:38:40;8.50;;;2.65;;
43803;SDS011;29430;52.924;-2.388;2022-12-07T21:43:33;7.88;;;3.75;;
43803;SDS011;29430;52.924;-2.388;2022-12-07T21:48:24;9.77;;;3.92;;
43803;SDS011;29430;52.924;-2.388;2022-12-07T21:53:16;8.85;;;3.28;;
43803;SDS011;29430;52.924;-2.388;2022-12-07T21:58:08;9.63;;;4.50;;
43803;SDS011;29430;52.924;-2.388;2022-12-07T22:03:00;12.25;;;5.03;;
43803;SDS011;29430;52.924;-2.388;2022-12-07T22:07:52;12.05;;;5.05;;
43803;SDS011;29430;52.924;-2.388;2022-12-07T22:12:44;8.27;;;3.78;;
43803;SDS011;29430;52.924;-2.388;2022-12-07T22:17:35;11.05;;;5.32;;
43803;SDS011;29430;52.924;-2.388;2022-12-07T22:22:27;15.43;;;6.35;;
43803;SDS011;29430;52.924;-2.388;2022-12-07T22:27:19;11.40;;;6.65;;
43803;SDS011;29430;52.924;-2.388;2022-12-07T22:32:11;12.05;;;7.10;;
43803;SDS011;29430;52.924;-2.388;2022-12-07T22:37:23;11.77;;;6.65;;
43803;SDS011;29430;52.924;-2.388;2022-12-07T22:42:14;10.32;;;6.60;;
43803;SDS011;29430;52.924;-2.388;2022-12-07T22:47:06;10.48;;;5.28;;
43803;SDS011;29430;52.924;-2.388;2022-12-07T22:51:58;9.48;;;4.90;;
43803;SDS011;29430;52.924;-2.388;2022-12-07T22:56:49;11.18;;;5.47;;
43803;SDS011;29430;52.924;-2.388;2022-12-07T23:01:42;10.30;;;5.15;;
43803;SDS011;29430;52.924;-2.388;2022-12-07T23:06:34;7.18;;;3.85;;
43803;SDS011;29430;52.924;-2.388;2022-12-07T23:11:28;8.68;;;4.00;;
43803;SDS011;29430;52.924;-2.388;2022-12-07T23:16:40;9.32;;;3.72;;
43803;SDS011;29430;52.924;-2.388;2022-12-07T23:21:35;16.50;;;6.40;;
43803;SDS011;29430;52.924;-2.388;2022-12-07T23:26:27;11.02;;;4.70;;
43803;SDS011;29430;52.924;-2.388;2022-12-07T23:31:19;11.77;;;4.18;;
43803;SDS011;29430;52.924;-2.388;2022-12-07T23:36:13;11.32;;;3.78;;
43803;SDS011;29430;52.924;-2.388;2022-12-07T23:41:07;8.57;;;2.90;;
43803;SDS011;29430;52.924;-2.388;2022-12-07T23:46:00;12.10;;;4.30;;
43803;SDS011;29430;52.924;-2.388;2022-12-07T23:50:56;10.88;;;3.30;;
43803;SDS011;29430;52.924;-2.388;2022-12-07T23:55:48;8.38;;;2.63;;
